Time;durP1;ratioP1;P1;durP2;ratioP2;P2;SDS_P1;SDS_P2;PMS_P1;PMS_P2;Temp;Humidity;BMP_temperature;BMP_pressure;BME280_temperature;BME280_humidity;BME280_pressure;Samples;Min_cycle;Max_cycle;Signal;HPM_P1;HPM_P2
2023/02/26 00:02:17;;;;;;;2.60;1.63;;;-0.20;99.90;;;;;;5011107;28;20180;-65
2023/02/26 00:04:43;;;;;;;7.20;1.27;;;-0.20;99.90;;;;;;5022724;28;20688;-69
2023/02/26 00:07:08;;;;;;;1.63;1.53;;;-0.20;99.90;;;;;;5022562;28;20172;-67
2023/02/26 00:09:34;;;;;;;4.53;1.23;;;-0.20;99.90;;;;;;5027454;28;20564;-65
2023/02/26 00:12:00;;;;;;;2.20;1.73;;;-0.30;99.90;;;;;;5028926;28;20468;-66
2023/02/26 00:14:27;;;;;;;1.20;1.10;;;-0.30;99.90;;;;;;5019553;28;20175;-65
2023/02/26 00:17:24;;;;;;;1.70;1.00;;;-0.30;99.90;;;;;;5016389;28;20415;-68
2023/02/26 00:19:50;;;;;;;1.47;0.90;;;-0.30;99.90;;;;;;5011870;28;20471;-67
2023/02/26 00:22:16;;;;;;;4.60;1.30;;;-0.30;99.90;;;;;;5028390;28;20411;-66
2023/02/26 00:24:42;;;;;;;1.67;1.10;;;-0.30;99.90;;;;;;5017830;28;20259;-64
2023/02/26 00:27:10;;;;;;;2.70;1.50;;;-0.30;99.90;;;;;;5012387;28;20423;-66
2023/02/26 00:29:36;;;;;;;1.23;1.13;;;-0.30;99.90;;;;;;5000801;28;20188;-68
2023/02/26 00:32:02;;;;;;;2.40;1.47;;;-0.20;99.90;;;;;;5025221;28;20418;-68
2023/02/26 00:34:28;;;;;;;1.10;1.00;;;-0.10;99.90;;;;;;5020716;28;20415;-68
2023/02/26 00:37:05;;;;;;;3.07;1.43;;;-0.20;99.90;;;;;;5027351;28;20406;-67
2023/02/26 00:39:31;;;;;;;1.40;1.30;;;-0.20;99.90;;;;;;5020431;28;20952;-65
2023/02/26 00:41:57;;;;;;;1.70;1.60;;;-0.10;99.90;;;;;;5028173;28;20511;-67
2023/02/26 00:44:23;;;;;;;4.73;1.30;;;-0.10;99.90;;;;;;5006148;28;20172;-68
2023/02/26 00:47:38;;;;;;;1.83;1.73;;;-0.10;99.90;;;;;;5015115;28;20204;-66
2023/02/26 00:50:04;;;;;;;2.93;1.27;;;-0.10;99.90;;;;;;4985646;28;20243;-66
2023/02/26 00:52:36;;;;;;;2.30;1.10;;;-0.10;99.90;;;;;;5023848;28;20936;-67
2023/02/26 00:55:01;;;;;;;2.77;1.80;;;-0.10;99.90;;;;;;5022064;28;20172;-67
2023/02/26 00:57:27;;;;;;;2.03;1.20;;;0.00;99.90;;;;;;5026552;28;20414;-67
2023/02/26 00:59:52;;;;;;;8.40;2.53;;;0.00;99.90;;;;;;5005131;28;20546;-68
2023/02/26 01:02:18;;;;;;;1.90;1.30;;;0.00;99.90;;;;;;5018125;28;20182;-68
2023/02/26 01:04:45;;;;;;;8.17;1.33;;;0.00;99.90;;;;;;5016211;28;20211;-67
2023/02/26 01:07:11;;;;;;;1.40;1.30;;;0.00;99.90;;;;;;5027893;28;20606;-67
2023/02/26 01:09:37;;;;;;;2.40;1.37;;;0.10;99.90;;;;;;5024366;28;20442;-66
2023/02/26 01:12:07;;;;;;;1.67;1.27;;;0.10;99.90;;;;;;5028312;28;20240;-67
2023/02/26 01:14:34;;;;;;;1.17;1.00;;;0.10;99.90;;;;;;5029600;28;20631;-66
2023/02/26 01:17:12;;;;;;;1.33;1.23;;;0.10;99.90;;;;;;5030338;28;20460;-66
2023/02/26 01:19:44;;;;;;;1.27;1.17;;;0.20;99.90;;;;;;5005674;28;20480;-67
2023/02/26 01:22:54;;;;;;;1.10;1.00;;;0.10;99.90;;;;;;4995784;28;20468;-66
2023/02/26 01:25:27;;;;;;;1.67;1.20;;;0.20;99.90;;;;;;4999759;28;20418;-67
2023/02/26 01:27:56;;;;;;;1.33;1.23;;;0.10;99.90;;;;;;5009931;28;20432;-67
2023/02/26 01:30:23;;;;;;;1.40;1.30;;;0.20;99.90;;;;;;5021854;28;20488;-64
2023/02/26 01:33:07;;;;;;;1.53;1.20;;;0.20;99.90;;;;;;5023105;28;20423;-70
2023/02/26 01:35:49;;;;;;;2.30;1.10;;;0.20;99.90;;;;;;5017624;28;20475;-66
2023/02/26 01:38:31;;;;;;;1.90;1.23;;;0.20;99.90;;;;;;4996935;28;20497;-66
2023/02/26 01:41:13;;;;;;;0.93;0.93;;;0.20;99.90;;;;;;5027061;28;20548;-66
2023/02/26 01:43:51;;;;;;;1.20;1.10;;;0.20;99.90;;;;;;5027207;28;20806;-67
2023/02/26 01:46:50;;;;;;;4.70;1.10;;;0.20;99.90;;;;;;5030596;28;20967;-65
2023/02/26 01:49:17;;;;;;;1.27;1.17;;;0.20;99.90;;;;;;5021888;28;20534;-66
2023/02/26 01:51:55;;;;;;;4.17;1.27;;;0.20;99.90;;;;;;5032027;28;20457;-65
2023/02/26 01:54:24;;;;;;;1.23;1.13;;;0.20;99.90;;;;;;5020900;28;20415;-66
2023/02/26 01:56:55;;;;;;;0.80;0.80;;;0.20;99.90;;;;;;5019900;28;20819;-65
2023/02/26 01:59:23;;;;;;;6.70;1.17;;;0.20;99.90;;;;;;4989215;28;21024;-65
2023/02/26 02:01:55;;;;;;;1.40;1.30;;;0.20;99.90;;;;;;5011228;28;21050;-69
2023/02/26 02:04:22;;;;;;;1.70;1.00;;;0.20;99.90;;;;;;5030197;28;20410;-66
2023/02/26 02:06:48;;;;;;;1.07;1.07;;;0.20;99.90;;;;;;5033447;28;20492;-68
2023/02/26 02:09:14;;;;;;;1.57;0.90;;;0.20;99.90;;;;;;5024079;28;20502;-68
2023/02/26 02:11:57;;;;;;;1.47;1.10;;;0.20;99.90;;;;;;5029916;28;20179;-67
2023/02/26 02:14:38;;;;;;;0.73;0.73;;;0.20;99.90;;;;;;5020102;28;20186;-67
2023/02/26 02:17:25;;;;;;;1.03;1.00;;;0.30;99.90;;;;;;5022762;28;20487;-68
2023/02/26 02:20:10;;;;;;;2.30;1.23;;;0.30;99.90;;;;;;5031748;28;20828;-66
2023/02/26 02:22:48;;;;;;;3.60;1.40;;;0.30;99.90;;;;;;5025281;28;20417;-66
2023/02/26 02:25:20;;;;;;;4.20;1.60;;;0.30;99.90;;;;;;5002937;28;20495;-65
2023/02/26 02:27:54;;;;;;;1.33;1.13;;;0.30;99.90;;;;;;5028342;28;20959;-66
2023/02/26 02:30:42;;;;;;;2.97;1.00;;;0.30;99.90;;;;;;5026882;28;20927;-67
2023/02/26 02:33:17;;;;;;;1.83;1.00;;;0.40;99.90;;;;;;5031988;28;20426;-67
2023/02/26 02:35:56;;;;;;;1.33;1.10;;;0.40;99.90;;;;;;5032084;28;20414;-67
2023/02/26 02:38:46;;;;;;;1.30;1.17;;;0.40;99.90;;;;;;5016838;28;20417;-68
2023/02/26 02:41:21;;;;;;;1.83;0.90;;;0.40;99.90;;;;;;5008046;28;20477;-66
2023/02/26 02:43:49;;;;;;;1.37;1.27;;;0.30;99.90;;;;;;5021940;28;20431;-67
2023/02/26 02:46:23;;;;;;;1.27;1.00;;;0.40;99.90;;;;;;5023509;28;20410;-68
2023/02/26 02:48:59;;;;;;;1.63;1.27;;;0.30;99.90;;;;;;5029111;28;20888;-70
2023/02/26 02:51:33;;;;;;;2.30;1.20;;;0.30;99.90;;;;;;5026992;28;20410;-66
2023/02/26 02:54:07;;;;;;;2.17;2.00;;;0.30;99.90;;;;;;5032226;28;20504;-66
2023/02/26 02:56:51;;;;;;;1.83;1.00;;;0.30;99.90;;;;;;5028617;28;20418;-66
2023/02/26 02:59:22;;;;;;;2.10;0.90;;;0.30;99.90;;;;;;5031227;28;20434;-67
2023/02/26 03:01:51;;;;;;;1.20;1.10;;;0.30;99.90;;;;;;5034205;28;20461;-68
2023/02/26 03:04:17;;;;;;;1.27;0.90;;;0.20;99.90;;;;;;5020287;28;20430;-66
2023/02/26 03:06:45;;;;;;;3.20;2.90;;;0.20;99.90;;;;;;5014425;28;20426;-66
2023/02/26 03:09:11;;;;;;;1.63;0.90;;;0.20;99.90;;;;;;5026210;28;20284;-64
2023/02/26 03:11:38;;;;;;;1.37;1.27;;;0.20;99.90;;;;;;5032883;28;20505;-65
2023/02/26 03:14:05;;;;;;;1.43;1.13;;;0.20;99.90;;;;;;5028063;28;20418;-67
2023/02/26 03:17:01;;;;;;;1.20;1.10;;;0.20;99.90;;;;;;5028602;28;21040;-66
2023/02/26 03:19:39;;;;;;;1.70;1.60;;;0.20;99.90;;;;;;5013786;28;20439;-67
2023/02/26 03:22:11;;;;;;;1.00;1.00;;;0.20;99.90;;;;;;5015988;28;20495;-66
2023/02/26 03:25:00;;;;;;;2.20;1.40;;;0.20;99.90;;;;;;5009991;28;20871;-66
2023/02/26 03:27:35;;;;;;;2.73;1.20;;;0.20;99.90;;;;;;5001371;28;20412;-66
2023/02/26 03:30:11;;;;;;;3.73;1.83;;;0.10;99.90;;;;;;5018509;28;20435;-65
2023/02/26 03:32:39;;;;;;;1.00;1.00;;;0.10;99.90;;;;;;5028440;28;20414;-67
2023/02/26 03:35:30;;;;;;;1.20;1.10;;;0.20;99.90;;;;;;5016822;28;20438;-66
2023/02/26 03:38:00;;;;;;;2.73;1.13;;;0.20;99.90;;;;;;5018417;28;20411;-66
2023/02/26 03:40:50;;;;;;;1.17;1.07;;;0.20;99.90;;;;;;5013637;28;20459;-67
2023/02/26 03:43:18;;;;;;;1.10;1.00;;;0.20;99.90;;;;;;5015621;28;20413;-66
2023/02/26 03:45:47;;;;;;;1.23;0.90;;;0.20;99.90;;;;;;5027310;28;20413;-66
2023/02/26 03:48:18;;;;;;;0.80;0.80;;;0.20;99.90;;;;;;5031236;28;20399;-68
2023/02/26 03:50:48;;;;;;;1.00;1.00;;;0.20;99.90;;;;;;5028515;28;20414;-67
2023/02/26 03:53:22;;;;;;;4.03;1.20;;;0.20;99.90;;;;;;5017036;28;20432;-65
2023/02/26 03:56:13;;;;;;;1.67;0.90;;;0.20;99.90;;;;;;5015759;28;20554;-71
2023/02/26 03:58:39;;;;;;;1.53;1.00;;;0.20;99.90;;;;;;5026472;28;20460;-68
2023/02/26 04:01:17;;;;;;;1.00;1.00;;;0.20;99.90;;;;;;5031745;28;20458;-66
2023/02/26 04:03:55;;;;;;;1.07;0.80;;;0.20;99.90;;;;;;5029281;28;20540;-65
2023/02/26 04:06:21;;;;;;;1.33;1.20;;;0.20;99.90;;;;;;5032192;28;20409;-67
2023/02/26 04:08:47;;;;;;;1.53;1.00;;;0.20;99.90;;;;;;5028135;28;20567;-65
2023/02/26 04:11:18;;;;;;;1.40;1.30;;;0.20;99.90;;;;;;5006518;28;21058;-66
2023/02/26 04:13:44;;;;;;;1.67;0.90;;;0.20;99.90;;;;;;5018097;28;20513;-65
2023/02/26 04:16:10;;;;;;;1.10;1.00;;;0.20;99.90;;;;;;5028322;28;20902;-67
2023/02/26 04:18:36;;;;;;;1.90;1.00;;;0.20;99.90;;;;;;5028735;28;20513;-66
2023/02/26 04:21:02;;;;;;;1.67;1.53;;;0.20;99.90;;;;;;5028425;28;20454;-68
2023/02/26 04:23:28;;;;;;;1.20;1.10;;;0.20;99.90;;;;;;5024941;28;20176;-66
2023/02/26 04:25:53;;;;;;;1.30;1.20;;;0.20;99.90;;;;;;5032174;28;20410;-65
2023/02/26 04:28:19;;;;;;;1.40;1.20;;;0.30;99.90;;;;;;5028530;28;20630;-66
2023/02/26 04:30:44;;;;;;;1.17;0.80;;;0.30;99.90;;;;;;5031251;28;20203;-67
2023/02/26 04:33:11;;;;;;;1.83;1.00;;;0.30;99.90;;;;;;5029481;28;20174;-67
2023/02/26 04:35:37;;;;;;;2.20;1.33;;;0.30;99.90;;;;;;5028805;28;20183;-66
2023/02/26 04:38:02;;;;;;;0.93;0.83;;;0.30;99.90;;;;;;5010794;28;20427;-67
2023/02/26 04:40:28;;;;;;;6.63;1.77;;;0.30;99.90;;;;;;5028910;28;20211;-69
2023/02/26 04:42:54;;;;;;;1.43;1.30;;;0.20;99.90;;;;;;5030689;28;20179;-67
2023/02/26 04:45:19;;;;;;;0.80;0.80;;;0.30;99.90;;;;;;5028343;28;20196;-66
2023/02/26 04:47:45;;;;;;;3.00;1.20;;;0.30;99.90;;;;;;5030701;28;20171;-65
2023/02/26 04:50:10;;;;;;;0.80;0.80;;;0.30;99.90;;;;;;5028734;28;20266;-68
2023/02/26 04:52:36;;;;;;;1.10;0.83;;;0.30;99.90;;;;;;5041973;22;20226;-63
2023/02/26 04:55:02;;;;;;;2.40;1.40;;;0.30;99.90;;;;;;5030810;28;20175;-64
2023/02/26 04:57:27;;;;;;;1.10;1.00;;;0.30;99.90;;;;;;5029710;28;20178;-64
2023/02/26 04:59:53;;;;;;;6.70;1.40;;;0.40;99.90;;;;;;5038238;28;20202;-63
2023/02/26 05:02:18;;;;;;;1.13;1.03;;;0.30;99.90;;;;;;5042454;28;20191;-63
2023/02/26 05:04:44;;;;;;;1.10;1.00;;;0.30;99.90;;;;;;5045702;28;20563;-63
2023/02/26 05:07:10;;;;;;;0.80;0.80;;;0.30;99.90;;;;;;5037591;28;20657;-63
2023/02/26 05:09:36;;;;;;;1.03;0.80;;;0.30;99.90;;;;;;5037750;28;20715;-63
2023/02/26 05:12:01;;;;;;;0.93;0.93;;;0.30;99.90;;;;;;5038701;28;20455;-64
2023/02/26 05:14:27;;;;;;;1.30;1.07;;;0.30;99.90;;;;;;5013911;28;20206;-64
2023/02/26 05:16:52;;;;;;;0.90;0.90;;;0.40;99.90;;;;;;5043400;28;20507;-64
2023/02/26 05:19:18;;;;;;;1.33;1.23;;;0.40;99.90;;;;;;5034933;28;20259;-63
2023/02/26 05:21:44;;;;;;;0.70;0.70;;;0.40;99.90;;;;;;5037644;28;20209;-63
2023/02/26 05:24:09;;;;;;;1.63;1.27;;;0.40;99.90;;;;;;5043300;28;20616;-64
2023/02/26 05:26:35;;;;;;;2.47;1.00;;;0.40;99.90;;;;;;5033139;28;20247;-63
2023/02/26 05:29:01;;;;;;;1.60;1.00;;;0.40;99.90;;;;;;5021726;28;20696;-62
2023/02/26 05:31:27;;;;;;;1.20;1.03;;;0.40;99.90;;;;;;5039260;28;20199;-63
2023/02/26 05:33:52;;;;;;;0.90;0.80;;;0.40;99.90;;;;;;5038570;28;20446;-63
2023/02/26 05:36:18;;;;;;;1.17;0.90;;;0.40;99.90;;;;;;5042002;28;20521;-63
2023/02/26 05:38:43;;;;;;;2.50;1.03;;;0.40;99.90;;;;;;5037661;28;20317;-64
2023/02/26 05:41:09;;;;;;;3.23;1.00;;;0.40;99.90;;;;;;5044124;28;20199;-64
2023/02/26 05:43:35;;;;;;;2.33;1.63;;;0.40;99.90;;;;;;5034334;28;20210;-64
2023/02/26 05:46:01;;;;;;;1.13;1.03;;;0.40;99.90;;;;;;5008827;28;20176;-62
2023/02/26 05:48:27;;;;;;;1.10;1.00;;;0.40;99.90;;;;;;5015931;28;20563;-63
2023/02/26 05:50:53;;;;;;;1.07;0.97;;;0.30;99.90;;;;;;5036366;28;20425;-63
2023/02/26 05:53:18;;;;;;;1.60;1.50;;;0.30;99.90;;;;;;5042480;28;20833;-64
2023/02/26 05:55:44;;;;;;;2.93;1.80;;;0.40;99.90;;;;;;5037173;28;20552;-64
2023/02/26 05:58:10;;;;;;;0.80;0.80;;;0.40;99.90;;;;;;5043236;28;20475;-64
2023/02/26 06:00:36;;;;;;;2.60;0.93;;;0.40;99.90;;;;;;5037231;28;20205;-64
2023/02/26 06:03:01;;;;;;;1.50;0.97;;;0.40;99.90;;;;;;5039278;28;20222;-64
2023/02/26 06:05:27;;;;;;;1.73;1.27;;;0.40;99.90;;;;;;5020177;28;20472;-63
2023/02/26 06:07:52;;;;;;;1.50;1.40;;;0.40;99.90;;;;;;5036251;28;20502;-64
2023/02/26 06:10:18;;;;;;;5.50;1.10;;;0.40;99.90;;;;;;5043914;28;20632;-63
2023/02/26 06:12:43;;;;;;;1.70;1.20;;;0.40;99.90;;;;;;5037010;28;20223;-63
2023/02/26 06:15:10;;;;;;;1.00;1.00;;;0.40;99.90;;;;;;5045026;28;20172;-63
2023/02/26 06:17:36;;;;;;;2.40;1.53;;;0.40;99.90;;;;;;5037243;28;20172;-63
2023/02/26 06:20:03;;;;;;;1.90;1.67;;;0.40;99.90;;;;;;5028584;28;20427;-63
2023/02/26 06:22:30;;;;;;;1.13;1.00;;;0.50;99.90;;;;;;5026464;28;20503;-63
2023/02/26 06:24:56;;;;;;;1.83;1.27;;;0.50;99.90;;;;;;5038128;28;20414;-63
2023/02/26 06:27:22;;;;;;;1.90;1.00;;;0.50;99.90;;;;;;5037026;28;20422;-62
2023/02/26 06:29:48;;;;;;;1.30;1.20;;;0.50;99.90;;;;;;5035750;28;20171;-64
2023/02/26 06:32:14;;;;;;;1.37;1.27;;;0.50;99.90;;;;;;5037341;28;20430;-64
2023/02/26 06:34:39;;;;;;;0.97;0.80;;;0.50;99.90;;;;;;5037042;28;20179;-64
2023/02/26 06:37:05;;;;;;;1.10;1.00;;;0.50;99.90;;;;;;5036368;28;20195;-64
2023/02/26 06:39:31;;;;;;;1.10;1.10;;;0.50;99.90;;;;;;5040870;28;20187;-64
2023/02/26 06:41:57;;;;;;;1.10;1.00;;;0.60;99.90;;;;;;5034449;28;20556;-64
2023/02/26 06:44:23;;;;;;;1.10;1.00;;;0.60;99.90;;;;;;5002427;28;20521;-62
2023/02/26 06:46:48;;;;;;;1.20;1.10;;;0.70;99.90;;;;;;5020043;28;20514;-63
2023/02/26 06:49:14;;;;;;;0.83;0.83;;;0.80;99.90;;;;;;5040241;28;20171;-63
2023/02/26 06:51:39;;;;;;;2.20;1.20;;;0.90;99.90;;;;;;5024959;28;20185;-64
2023/02/26 06:54:05;;;;;;;1.03;1.00;;;0.90;99.90;;;;;;5027523;28;20210;-66
2023/02/26 06:56:31;;;;;;;1.00;0.90;;;1.00;99.90;;;;;;5013661;28;20188;-63
2023/02/26 06:58:56;;;;;;;1.23;1.13;;;1.10;99.90;;;;;;5015605;28;20646;-62
2023/02/26 07:01:23;;;;;;;0.70;0.70;;;1.20;99.90;;;;;;5010167;28;20204;-65
2023/02/26 07:03:49;;;;;;;1.40;0.90;;;1.40;99.90;;;;;;5025372;28;20357;-62
2023/02/26 07:06:15;;;;;;;1.27;0.90;;;1.50;99.90;;;;;;5030051;28;20931;-64
2023/02/26 07:08:41;;;;;;;0.90;0.90;;;1.50;99.90;;;;;;5047366;28;20416;-63
2023/02/26 07:11:08;;;;;;;3.50;0.97;;;1.50;99.90;;;;;;5036656;28;20422;-63
2023/02/26 07:13:37;;;;;;;1.93;0.90;;;1.40;99.90;;;;;;5039006;28;20441;-64
2023/02/26 07:16:06;;;;;;;1.67;0.97;;;1.30;99.90;;;;;;5039697;28;20444;-63
2023/02/26 07:18:35;;;;;;;2.53;1.70;;;1.10;99.90;;;;;;5035241;28;20801;-64
2023/02/26 07:21:02;;;;;;;2.93;0.90;;;0.90;99.90;;;;;;5009846;28;20470;-63
2023/02/26 07:23:28;;;;;;;1.10;0.90;;;0.90;99.90;;;;;;5027974;28;20585;-64
2023/02/26 07:25:55;;;;;;;2.43;1.20;;;0.90;99.90;;;;;;5040274;28;20432;-64
2023/02/26 07:28:21;;;;;;;2.20;0.90;;;1.10;99.90;;;;;;5037153;28;20185;-64
2023/02/26 07:30:46;;;;;;;1.80;1.13;;;1.10;99.90;;;;;;5035631;28;20430;-64
2023/02/26 07:33:12;;;;;;;3.73;1.63;;;1.10;99.90;;;;;;5003702;28;20509;-63
2023/02/26 07:35:38;;;;;;;3.83;1.10;;;1.20;99.90;;;;;;5009634;28;20226;-63
2023/02/26 07:38:05;;;;;;;2.60;1.13;;;1.60;99.90;;;;;;5030946;28;20179;-63
2023/02/26 07:40:31;;;;;;;1.20;1.10;;;2.10;99.90;;;;;;5041929;28;20457;-62
2023/02/26 07:42:57;;;;;;;4.60;0.90;;;2.50;99.90;;;;;;5042499;28;20464;-63
2023/02/26 07:45:23;;;;;;;1.00;1.00;;;2.70;99.90;;;;;;5027796;28;20439;-63
2023/02/26 07:47:50;;;;;;;1.23;1.00;;;2.50;99.90;;;;;;5013219;28;20616;-64
2023/02/26 07:50:16;;;;;;;2.07;1.00;;;2.50;99.90;;;;;;5029495;28;20434;-63
2023/02/26 07:52:41;;;;;;;1.73;1.03;;;2.20;99.90;;;;;;5041207;28;21041;-62
2023/02/26 07:55:08;;;;;;;1.90;1.27;;;2.10;99.90;;;;;;5041192;28;20504;-63
2023/02/26 07:57:34;;;;;;;1.43;0.80;;;2.30;99.90;;;;;;5042480;28;20217;-63
2023/02/26 08:00:00;;;;;;;1.00;0.83;;;2.80;99.90;;;;;;5041416;28;20999;-62
2023/02/26 08:02:25;;;;;;;1.30;1.10;;;3.10;99.90;;;;;;5016422;28;20286;-63
2023/02/26 08:04:51;;;;;;;1.43;0.80;;;3.50;99.90;;;;;;5043986;28;20245;-64
2023/02/26 08:07:17;;;;;;;1.40;0.87;;;3.90;99.90;;;;;;5039223;28;20595;-62
2023/02/26 08:09:44;;;;;;;2.37;1.00;;;4.40;99.90;;;;;;5045951;28;20175;-63
2023/02/26 08:12:09;;;;;;;1.27;0.83;;;4.60;99.90;;;;;;5039812;28;20457;-65
2023/02/26 08:14:35;;;;;;;0.90;0.80;;;5.40;99.90;;;;;;5045334;28;20417;-64
2023/02/26 08:17:00;;;;;;;1.10;0.90;;;5.30;99.90;;;;;;5035631;28;20259;-64
2023/02/26 08:19:26;;;;;;;4.37;1.20;;;6.00;99.90;;;;;;5024694;28;20338;-64
2023/02/26 08:21:54;;;;;;;1.00;0.90;;;5.40;99.90;;;;;;5031488;28;20216;-64
2023/02/26 08:24:20;;;;;;;0.90;0.90;;;5.60;99.90;;;;;;5025409;28;20587;-65
2023/02/26 08:26:46;;;;;;;2.80;1.00;;;5.90;99.90;;;;;;5038092;28;20414;-65
2023/02/26 08:29:11;;;;;;;2.53;0.90;;;6.10;99.90;;;;;;5036399;28;20426;-63
2023/02/26 08:31:37;;;;;;;3.73;1.50;;;6.80;99.90;;;;;;5025543;28;20444;-64
2023/02/26 08:34:03;;;;;;;3.17;1.10;;;7.60;99.90;;;;;;5015918;28;20248;-63
2023/02/26 08:36:29;;;;;;;1.37;1.13;;;8.70;99.90;;;;;;5003771;28;20281;-64
2023/02/26 08:38:55;;;;;;;1.23;1.10;;;9.00;99.90;;;;;;5010408;28;20678;-62
2023/02/26 08:41:21;;;;;;;1.43;1.30;;;10.00;99.90;;;;;;5015528;28;20566;-65
2023/02/26 08:43:47;;;;;;;3.60;1.17;;;10.90;99.90;;;;;;5036934;28;20204;-65
2023/02/26 08:46:13;;;;;;;1.10;1.00;;;10.10;99.90;;;;;;5026159;28;20471;-65
2023/02/26 08:48:38;;;;;;;4.67;1.20;;;10.00;99.90;;;;;;5020999;28;20436;-64
2023/02/26 08:51:04;;;;;;;1.10;0.70;;;10.80;99.90;;;;;;5042782;28;20197;-64
2023/02/26 08:53:29;;;;;;;2.00;0.90;;;10.70;99.90;;;;;;5036654;28;20301;-64
2023/02/26 08:55:55;;;;;;;0.80;0.80;;;11.00;99.90;;;;;;5044237;28;20181;-64
2023/02/26 08:58:21;;;;;;;2.17;1.20;;;10.60;99.90;;;;;;5038164;28;20193;-64
2023/02/26 09:00:47;;;;;;;2.00;0.90;;;10.10;99.90;;;;;;5035453;28;20662;-64
2023/02/26 09:03:13;;;;;;;2.50;1.43;;;9.40;99.90;;;;;;5025646;28;20212;-64
2023/02/26 09:05:39;;;;;;;1.23;0.77;;;8.10;99.90;;;;;;5014647;28;21244;-62
2023/02/26 09:08:05;;;;;;;2.10;1.43;;;8.40;99.90;;;;;;5023947;28;20195;-64
2023/02/26 09:10:31;;;;;;;2.17;1.07;;;8.90;99.90;;;;;;5041464;28;20446;-64
2023/02/26 09:12:57;;;;;;;1.23;0.87;;;9.90;99.90;;;;;;5037133;28;20444;-63
2023/02/26 09:15:22;;;;;;;1.57;0.90;;;10.80;99.90;;;;;;5042858;28;20184;-64
2023/02/26 09:17:48;;;;;;;1.63;0.80;;;10.80;99.90;;;;;;5038857;28;20260;-64
2023/02/26 09:20:14;;;;;;;2.03;0.97;;;11.40;99.90;;;;;;5033966;28;20315;-64
2023/02/26 09:22:40;;;;;;;1.40;0.80;;;11.10;99.90;;;;;;5041559;28;20255;-64
2023/02/26 09:25:06;;;;;;;3.20;1.43;;;11.40;99.90;;;;;;5019753;28;20529;-64
2023/02/26 09:27:34;;;;;;;2.20;0.90;;;10.90;99.90;;;;;;5037747;28;21062;-65
2023/02/26 09:30:00;;;;;;;1.93;1.13;;;10.10;99.90;;;;;;5033630;28;20431;-65
2023/02/26 09:32:25;;;;;;;1.73;1.13;;;10.30;99.90;;;;;;5040206;28;21073;-64
2023/02/26 09:34:51;;;;;;;1.17;1.07;;;9.30;99.90;;;;;;5028144;28;20274;-65
2023/02/26 09:37:17;;;;;;;1.03;0.93;;;8.20;99.90;;;;;;5033845;28;20273;-64
2023/02/26 09:39:43;;;;;;;3.77;1.30;;;7.30;99.90;;;;;;5032967;28;20569;-64
2023/02/26 09:42:32;;;;;;;0.83;0.70;;;7.10;99.90;;;;;;5012184;28;20469;-64
2023/02/26 09:44:58;;;;;;;1.07;0.90;;;7.10;99.90;;;;;;4999811;28;20801;-64
2023/02/26 09:47:44;;;;;;;2.23;0.80;;;6.30;99.90;;;;;;5042345;28;20413;-64
2023/02/26 09:50:30;;;;;;;2.47;1.00;;;6.30;99.90;;;;;;5038145;28;20421;-66
2023/02/26 09:53:29;;;;;;;2.63;1.00;;;6.50;99.90;;;;;;5029495;28;20469;-66
2023/02/26 09:56:00;;;;;;;2.57;1.10;;;6.70;99.90;;;;;;5028603;28;20469;-64
2023/02/26 09:58:34;;;;;;;1.93;1.00;;;6.50;99.90;;;;;;5028813;28;20940;-65
2023/02/26 10:01:30;;;;;;;1.83;1.13;;;5.40;99.90;;;;;;5030231;28;20527;-63
2023/02/26 10:04:10;;;;;;;2.70;1.07;;;4.70;99.90;;;;;;5033335;28;20424;-63
2023/02/26 10:06:55;;;;;;;1.73;1.10;;;4.40;99.90;;;;;;5025393;28;20448;-66
2023/02/26 10:09:58;;;;;;;1.03;0.90;;;4.10;99.90;;;;;;5013241;28;20473;-64
2023/02/26 10:12:27;;;;;;;1.53;0.90;;;3.80;99.90;;;;;;5015363;28;20466;-65
2023/02/26 10:15:31;;;;;;;2.20;1.10;;;3.80;99.90;;;;;;5019283;28;20553;-64
2023/02/26 10:17:56;;;;;;;1.23;1.00;;;4.00;99.90;;;;;;5010694;28;20920;-66
2023/02/26 10:20:35;;;;;;;0.80;0.80;;;3.80;99.90;;;;;;5023638;28;20582;-65
2023/02/26 10:23:15;;;;;;;4.50;1.00;;;3.70;99.90;;;;;;5027484;28;20203;-65
2023/02/26 10:25:46;;;;;;;0.90;0.80;;;3.60;99.90;;;;;;5018739;28;20412;-65
2023/02/26 10:28:33;;;;;;;4.10;1.00;;;3.80;99.90;;;;;;5023089;28;20409;-65
2023/02/26 10:31:12;;;;;;;5.27;1.10;;;3.80;99.90;;;;;;5031144;28;20423;-64
2023/02/26 10:33:49;;;;;;;1.10;1.00;;;3.90;99.90;;;;;;5024858;28;20438;-64
2023/02/26 10:36:27;;;;;;;2.00;1.00;;;4.10;99.90;;;;;;5012095;28;20488;-63
2023/02/26 10:39:05;;;;;;;1.53;1.00;;;4.30;99.90;;;;;;5025998;28;20422;-63
2023/02/26 10:41:35;;;;;;;1.50;1.20;;;4.30;99.90;;;;;;5024873;28;20467;-64
2023/02/26 10:44:15;;;;;;;1.57;0.80;;;4.10;99.90;;;;;;5021245;28;20910;-64
2023/02/26 10:46:46;;;;;;;1.27;1.20;;;3.90;99.90;;;;;;5021824;28;20411;-64
2023/02/26 10:49:25;;;;;;;2.13;1.00;;;3.80;99.90;;;;;;5028643;28;20407;-63
2023/02/26 10:51:53;;;;;;;1.00;0.80;;;3.60;99.90;;;;;;5023881;28;20445;-63
2023/02/26 10:54:36;;;;;;;2.10;0.90;;;3.70;99.90;;;;;;5009736;28;20956;-63
2023/02/26 10:57:02;;;;;;;1.13;0.90;;;3.70;99.90;;;;;;5014876;28;20522;-63
2023/02/26 10:59:28;;;;;;;1.53;0.83;;;3.80;99.90;;;;;;5023085;28;20427;-64
2023/02/26 11:01:55;;;;;;;1.93;1.00;;;3.80;99.90;;;;;;5022017;28;20821;-64
2023/02/26 11:04:24;;;;;;;1.63;1.07;;;3.90;99.90;;;;;;5031475;28;20217;-64
2023/02/26 11:06:59;;;;;;;1.43;1.00;;;3.70;99.90;;;;;;5028466;28;20489;-64
2023/02/26 11:09:36;;;;;;;1.33;0.90;;;3.60;99.90;;;;;;5021383;28;20429;-64
2023/02/26 11:12:14;;;;;;;1.83;1.73;;;3.60;99.90;;;;;;5015177;28;20784;-63
2023/02/26 11:14:42;;;;;;;4.53;0.97;;;3.50;99.90;;;;;;5017512;28;20414;-67
2023/02/26 11:17:18;;;;;;;1.60;1.13;;;3.50;99.90;;;;;;5024886;28;20442;-64
2023/02/26 11:19:54;;;;;;;1.27;1.17;;;3.80;99.90;;;;;;5010237;28;20441;-64
2023/02/26 11:22:20;;;;;;;0.80;0.80;;;4.10;99.90;;;;;;5028545;28;20971;-64
2023/02/26 11:24:47;;;;;;;1.40;0.80;;;4.30;99.90;;;;;;5024785;28;20414;-63
2023/02/26 11:27:18;;;;;;;1.90;1.20;;;4.20;99.90;;;;;;5015383;28;20409;-64
2023/02/26 11:29:53;;;;;;;1.00;0.90;;;4.20;99.90;;;;;;5018643;28;20413;-64
2023/02/26 11:32:30;;;;;;;1.03;0.90;;;4.10;99.90;;;;;;5007775;28;20461;-66
2023/02/26 11:34:56;;;;;;;3.13;1.17;;;4.20;99.90;;;;;;5026195;28;20410;-64
2023/02/26 11:37:27;;;;;;;1.00;0.90;;;4.00;99.90;;;;;;5026557;28;20424;-64
2023/02/26 11:39:58;;;;;;;1.83;1.10;;;3.70;99.90;;;;;;5026729;28;20195;-64
2023/02/26 11:42:26;;;;;;;0.90;0.90;;;3.50;99.90;;;;;;5030318;28;20438;-64
2023/02/26 11:44:53;;;;;;;1.60;1.20;;;3.60;99.90;;;;;;5031803;28;20406;-64
2023/02/26 11:47:22;;;;;;;3.83;1.63;;;3.50;99.90;;;;;;5033808;28;20884;-63
2023/02/26 11:49:53;;;;;;;2.33;1.43;;;3.60;99.90;;;;;;5030747;28;20418;-64
2023/02/26 11:52:34;;;;;;;1.00;1.00;;;3.90;99.90;;;;;;5020965;28;20457;-63
2023/02/26 11:55:03;;;;;;;1.20;0.80;;;4.30;99.90;;;;;;5051457;22;20478;-68
2023/02/26 11:57:31;;;;;;;1.10;0.90;;;4.20;99.90;;;;;;5030673;28;20453;-68
2023/02/26 11:59:59;;;;;;;2.00;1.07;;;4.00;99.90;;;;;;5020391;28;20477;-68
2023/02/26 12:02:30;;;;;;;2.93;1.47;;;4.00;99.90;;;;;;5020302;28;20813;-68
2023/02/26 12:05:00;;;;;;;0.80;0.80;;;4.00;99.90;;;;;;5036890;28;20442;-68
2023/02/26 12:07:25;;;;;;;1.33;1.23;;;3.90;99.90;;;;;;5025719;28;20440;-69
2023/02/26 12:09:51;;;;;;;3.57;1.23;;;3.90;99.90;;;;;;5044246;28;20441;-68
2023/02/26 12:12:29;;;;;;;0.73;0.73;;;4.10;99.90;;;;;;5045121;28;20409;-70
2023/02/26 12:15:22;;;;;;;1.00;0.87;;;4.10;99.90;;;;;;5045047;28;20289;-69
2023/02/26 12:18:10;;;;;;;4.70;1.60;;;3.90;99.90;;;;;;5048031;28;20448;-69
2023/02/26 12:20:53;;;;;;;1.30;1.20;;;4.30;99.90;;;;;;5031046;28;20899;-68
2023/02/26 12:23:42;;;;;;;1.03;0.93;;;4.30;99.90;;;;;;5034225;28;20410;-69
2023/02/26 12:26:52;;;;;;;1.73;1.23;;;4.60;99.90;;;;;;5042046;28;20422;-69
2023/02/26 12:29:32;;;;;;;1.63;1.07;;;4.50;99.90;;;;;;4931463;29;21257;-69
2023/02/26 12:32:22;;;;;;;0.90;0.90;;;4.10;99.90;;;;;;5029163;28;20420;-69
2023/02/26 12:35:25;;;;;;;1.13;1.03;;;3.90;99.90;;;;;;5044223;28;20495;-69
2023/02/26 12:38:07;;;;;;;3.63;1.33;;;3.80;99.90;;;;;;5037898;28;20406;-69
2023/02/26 12:40:58;;;;;;;0.80;0.80;;;3.90;99.90;;;;;;5046253;28;20483;-68
2023/02/26 12:43:42;;;;;;;1.30;1.20;;;4.00;99.90;;;;;;5033844;28;20410;-68
2023/02/26 12:46:30;;;;;;;1.40;1.10;;;3.90;99.90;;;;;;5025589;28;20963;-69
2023/02/26 12:49:11;;;;;;;2.20;1.00;;;3.80;99.90;;;;;;5035852;28;20418;-68
2023/02/26 12:51:50;;;;;;;2.60;1.40;;;3.90;99.90;;;;;;5013999;28;20543;-63
2023/02/26 12:54:53;;;;;;;1.17;1.07;;;4.00;99.90;;;;;;5011883;28;20432;-69
2023/02/26 12:57:29;;;;;;;1.13;1.00;;;3.90;99.90;;;;;;5031336;28;20950;-68
2023/02/26 13:00:19;;;;;;;2.30;1.27;;;3.90;99.90;;;;;;5038887;28;20395;-70
2023/02/26 13:03:04;;;;;;;4.23;1.07;;;3.90;99.90;;;;;;5035373;28;20429;-69
2023/02/26 13:05:41;;;;;;;2.20;1.67;;;4.10;99.90;;;;;;5035427;28;20432;-69
2023/02/26 13:08:35;;;;;;;1.80;1.00;;;4.20;99.90;;;;;;5041099;28;20409;-69
2023/02/26 13:11:12;;;;;;;1.47;1.00;;;4.20;99.90;;;;;;5041666;28;20404;-69
2023/02/26 13:13:55;;;;;;;1.20;0.80;;;4.10;99.90;;;;;;5037406;28;20418;-69
2023/02/26 13:16:52;;;;;;;1.37;1.27;;;4.00;99.90;;;;;;5026261;28;20576;-69
2023/02/26 13:19:36;;;;;;;2.83;1.40;;;3.80;99.90;;;;;;5027762;28;20540;-69